Time;durP1;ratioP1;P1;durP2;ratioP2;P2;SDS_P1;SDS_P2;PMS_P1;PMS_P2;Temp;Humidity;BMP_temperature;BMP_pressure;BME280_temperature;BME280_humidity;BME280_pressure;Samples;Min_cycle;Max_cycle;Signal;HPM_P1;HPM_P2
2023/05/20 00:01:07;;;;;;;;;;;20.90;43.20;;;;;;5087098;28;22554;-61
2023/05/20 00:03:35;;;;;;;;;;;20.90;43.40;;;;;;5095844;28;19920;-61
2023/05/20 00:06:02;;;;;;;;;;;20.90;43.20;;;;;;5076422;28;19920;-62
2023/05/20 00:08:29;;;;;;;;;;;20.90;43.20;;;;;;5084523;28;19960;-61
2023/05/20 00:10:56;;;;;;;;;;;20.90;43.20;;;;;;5094808;28;19927;-61
2023/05/20 00:13:24;;;;;;;;;;;20.90;43.20;;;;;;5082583;28;19928;-61
2023/05/20 00:15:51;;;;;;;;;;;20.90;43.20;;;;;;5077756;28;19926;-61
2023/05/20 00:18:18;;;;;;;;;;;20.90;43.20;;;;;;5093376;28;19927;-61
2023/05/20 00:20:46;;;;;;;;;;;20.90;43.20;;;;;;5093952;28;19920;-61
2023/05/20 00:23:13;;;;;;;;;;;20.90;43.20;;;;;;5083883;28;20274;-61
2023/05/20 00:25:40;;;;;;;;;;;20.90;43.20;;;;;;5082719;28;19920;-62
2023/05/20 00:28:07;;;;;;;;;;;20.90;43.20;;;;;;5079762;28;19936;-62
2023/05/20 00:30:33;;;;;;;;;;;20.90;43.20;;;;;;5094250;28;19946;-62
2023/05/20 00:33:00;;;;;;;;;;;20.90;43.20;;;;;;5095968;28;19920;-62
2023/05/20 00:35:27;;;;;;;;;;;20.90;43.20;;;;;;5076898;28;20297;-62
2023/05/20 00:37:55;;;;;;;;;;;20.90;43.20;;;;;;5093459;28;19920;-62
2023/05/20 00:40:23;;;;;;;;;;;20.90;43.20;;;;;;5095314;28;19982;-62
2023/05/20 00:42:51;;;;;;;;;;;20.90;43.20;;;;;;5094697;28;19973;-62
2023/05/20 00:45:18;;;;;;;;;;;20.90;43.20;;;;;;5076442;28;19931;-62
2023/05/20 00:47:44;;;;;;;;;;;20.90;43.20;;;;;;5078586;28;19928;-62
2023/05/20 00:50:11;;;;;;;;;;;20.90;43.20;;;;;;5079413;28;19927;-62
2023/05/20 00:52:38;;;;;;;;;;;20.90;43.20;;;;;;5076213;28;19931;-62
2023/05/20 00:55:06;;;;;;;;;;;20.90;43.20;;;;;;5075229;28;19920;-62
2023/05/20 00:57:33;;;;;;;;;;;20.90;43.20;;;;;;5094791;28;19927;-62
2023/05/20 01:00:00;;;;;;;;;;;20.90;43.20;;;;;;5085086;28;19921;-62
2023/05/20 01:02:27;;;;;;;;;;;20.90;43.20;;;;;;5076208;28;19921;-62
2023/05/20 01:04:55;;;;;;;;;;;20.90;43.20;;;;;;5092935;28;19920;-62
2023/05/20 01:07:22;;;;;;;;;;;20.90;43.20;;;;;;5078059;28;19970;-59
2023/05/20 01:09:49;;;;;;;;;;;20.90;43.20;;;;;;5115479;28;19920;-62
2023/05/20 01:12:21;;;;;;;;;;;20.90;43.20;;;;;;5082560;28;19928;-62
2023/05/20 01:14:48;;;;;;;;;;;20.90;43.20;;;;;;5078829;28;19928;-62
2023/05/20 01:17:16;;;;;;;;;;;20.90;43.20;;;;;;5093293;28;19943;-62
2023/05/20 01:19:43;;;;;;;;;;;20.90;43.20;;;;;;5094556;28;19924;-62
2023/05/20 01:22:13;;;;;;;;;;;20.90;43.20;;;;;;5089602;28;20346;-62
2023/05/20 01:24:42;;;;;;;;;;;20.90;43.20;;;;;;5097715;28;19919;-62
2023/05/20 01:27:09;;;;;;;;;;;20.90;43.20;;;;;;5098948;28;19920;-62
2023/05/20 01:29:36;;;;;;;;;;;20.90;43.20;;;;;;5114713;28;19949;-62
2023/05/20 01:32:05;;;;;;;;;;;20.90;43.20;;;;;;5098278;28;19920;-62
2023/05/20 01:34:32;;;;;;;;;;;20.90;43.20;;;;;;5112076;28;19920;-62
2023/05/20 01:36:59;;;;;;;;;;;20.90;43.20;;;;;;5112168;28;19927;-62
2023/05/20 01:39:26;;;;;;;;;;;20.90;43.20;;;;;;5106935;28;19920;-62
2023/05/20 01:41:54;;;;;;;;;;;20.90;43.20;;;;;;5078575;28;19924;-62
2023/05/20 01:44:21;;;;;;;;;;;20.90;43.20;;;;;;5077665;28;20358;-62
2023/05/20 01:46:59;;;;;;;;;;;20.90;43.20;;;;;;5077633;28;20486;-62
2023/05/20 01:49:26;;;;;;;;;;;20.90;43.20;;;;;;5075798;28;19920;-62
2023/05/20 01:51:53;;;;;;;;;;;20.90;43.20;;;;;;5095851;28;19924;-62
2023/05/20 01:54:19;;;;;;;;;;;20.90;43.20;;;;;;5092765;28;19919;-62
2023/05/20 01:56:46;;;;;;;;;;;20.90;43.20;;;;;;5078153;28;19929;-62
2023/05/20 01:59:14;;;;;;;;;;;20.90;43.20;;;;;;5093913;28;19924;-62
2023/05/20 02:01:44;;;;;;;;;;;20.90;43.20;;;;;;5095166;28;19920;-62
2023/05/20 02:04:11;;;;;;;;;;;20.90;43.20;;;;;;5095616;28;19920;-62
2023/05/20 02:06:38;;;;;;;;;;;20.90;43.20;;;;;;5077134;28;19924;-62
2023/05/20 02:09:05;;;;;;;;;;;20.90;43.20;;;;;;5095743;28;20276;-62
2023/05/20 02:11:35;;;;;;;;;;;20.90;43.20;;;;;;5077011;28;19920;-62
2023/05/20 02:14:01;;;;;;;;;;;20.90;43.20;;;;;;5076935;28;19927;-62
2023/05/20 02:16:29;;;;;;;;;;;20.90;43.20;;;;;;5091595;28;20061;-62
2023/05/20 02:18:57;;;;;;;;;;;20.90;43.20;;;;;;5094974;28;19927;-62
2023/05/20 02:21:26;;;;;;;;;;;20.90;43.20;;;;;;5076913;28;20366;-62
2023/05/20 02:23:52;;;;;;;;;;;20.90;43.20;;;;;;5093029;28;19920;-62
2023/05/20 02:26:22;;;;;;;;;;;20.90;43.20;;;;;;5085879;28;19924;-62
2023/05/20 02:28:49;;;;;;;;;;;20.90;43.20;;;;;;5092005;28;19932;-62
2023/05/20 02:31:16;;;;;;;;;;;20.90;43.20;;;;;;5093839;28;20472;-62
2023/05/20 02:33:44;;;;;;;;;;;20.90;43.20;;;;;;5109462;28;20006;-62
2023/05/20 02:36:11;;;;;;;;;;;20.90;43.20;;;;;;5110363;28;19920;-62
2023/05/20 02:38:38;;;;;;;;;;;20.90;43.20;;;;;;5092401;28;19928;-61
2023/05/20 02:41:05;;;;;;;;;;;20.90;43.20;;;;;;5094430;28;19988;-61
2023/05/20 02:43:35;;;;;;;;;;;20.90;43.20;;;;;;5076913;28;19927;-62
2023/05/20 02:46:06;;;;;;;;;;;20.90;43.20;;;;;;5091357;28;19920;-61
2023/05/20 02:48:32;;;;;;;;;;;20.90;43.20;;;;;;5076644;28;19924;-62
2023/05/20 02:51:00;;;;;;;;;;;20.90;43.20;;;;;;5094578;28;19924;-62
2023/05/20 02:53:27;;;;;;;;;;;20.90;43.20;;;;;;5092088;28;19920;-61
2023/05/20 02:55:54;;;;;;;;;;;20.90;43.20;;;;;;5091535;28;19928;-61
2023/05/20 02:58:26;;;;;;;;;;;20.90;43.20;;;;;;5083139;28;19969;-62
2023/05/20 03:00:53;;;;;;;;;;;20.90;43.20;;;;;;5074600;28;19920;-61
2023/05/20 03:03:20;;;;;;;;;;;20.90;43.20;;;;;;5076658;28;19920;-61
2023/05/20 03:05:47;;;;;;;;;;;20.90;43.20;;;;;;5091669;28;19920;-62
2023/05/20 03:08:15;;;;;;;;;;;20.90;43.20;;;;;;5076113;28;19920;-62
2023/05/20 03:10:42;;;;;;;;;;;20.90;43.20;;;;;;5091167;28;19920;-61
2023/05/20 03:13:10;;;;;;;;;;;20.90;43.20;;;;;;5093249;28;19985;-61
2023/05/20 03:15:36;;;;;;;;;;;20.90;43.20;;;;;;5092105;28;19956;-61
2023/05/20 03:18:03;;;;;;;;;;;20.90;43.20;;;;;;5091322;28;19920;-61
2023/05/20 03:20:31;;;;;;;;;;;20.90;43.20;;;;;;5097767;28;19946;-61
2023/05/20 03:22:58;;;;;;;;;;;20.90;43.20;;;;;;5075030;28;20377;-61
2023/05/20 03:25:26;;;;;;;;;;;20.90;43.20;;;;;;5092159;28;19927;-61
2023/05/20 03:27:53;;;;;;;;;;;20.90;43.70;;;;;;5078360;28;19920;-61
2023/05/20 03:30:20;;;;;;;;;;;20.90;43.20;;;;;;5088840;28;19965;-61
2023/05/20 03:32:47;;;;;;;;;;;20.90;43.20;;;;;;5086533;28;19970;-61
2023/05/20 03:35:16;;;;;;;;;;;20.90;43.20;;;;;;5074451;28;19920;-61
2023/05/20 03:37:43;;;;;;;;;;;20.90;43.20;;;;;;5076903;28;19920;-61
2023/05/20 03:40:10;;;;;;;;;;;20.90;43.20;;;;;;5085878;28;20022;-62
2023/05/20 03:42:38;;;;;;;;;;;20.90;43.20;;;;;;5098633;28;19924;-61
2023/05/20 03:45:08;;;;;;;;;;;20.90;43.20;;;;;;5082182;28;20041;-60
2023/05/20 03:47:36;;;;;;;;;;;20.90;43.20;;;;;;5095311;28;19920;-61
2023/05/20 03:50:02;;;;;;;;;;;20.90;43.20;;;;;;5077629;28;19920;-62
2023/05/20 03:52:30;;;;;;;;;;;20.90;43.20;;;;;;5076231;28;19931;-61
2023/05/20 03:54:57;;;;;;;;;;;20.90;43.10;;;;;;5097362;28;19920;-62
2023/05/20 03:57:24;;;;;;;;;;;20.90;43.20;;;;;;5083460;28;19924;-62
2023/05/20 03:59:52;;;;;;;;;;;20.90;43.20;;;;;;5080075;28;19924;-62
2023/05/20 04:02:19;;;;;;;;;;;20.90;43.20;;;;;;5094881;28;19968;-62
2023/05/20 04:04:45;;;;;;;;;;;20.90;43.10;;;;;;5079527;28;19969;-62
2023/05/20 04:07:12;;;;;;;;;;;20.90;43.20;;;;;;5079997;28;19959;-62
2023/05/20 04:09:39;;;;;;;;;;;20.90;43.20;;;;;;5095878;28;19931;-63
2023/05/20 04:12:06;;;;;;;;;;;20.90;43.20;;;;;;5102329;28;19920;-61
2023/05/20 04:14:34;;;;;;;;;;;20.90;43.20;;;;;;5079194;28;20454;-62
2023/05/20 04:17:04;;;;;;;;;;;20.90;43.20;;;;;;5078849;28;19978;-62
2023/05/20 04:19:31;;;;;;;;;;;20.90;43.20;;;;;;5095790;28;19927;-61
2023/05/20 04:21:58;;;;;;;;;;;20.90;43.20;;;;;;5079721;28;19920;-62
2023/05/20 04:24:26;;;;;;;;;;;20.90;43.20;;;;;;5097108;28;19920;-62
2023/05/20 04:26:56;;;;;;;;;;;20.90;43.20;;;;;;5076026;28;20011;-61
2023/05/20 04:29:22;;;;;;;;;;;20.90;43.10;;;;;;5085490;28;20041;-62
2023/05/20 04:31:49;;;;;;;;;;;20.90;43.20;;;;;;5097926;28;20019;-61
2023/05/20 04:34:19;;;;;;;;;;;20.90;43.20;;;;;;5096573;28;19927;-61
2023/05/20 04:36:45;;;;;;;;;;;20.90;43.20;;;;;;5097034;28;19945;-61
2023/05/20 04:39:12;;;;;;;;;;;20.90;43.20;;;;;;5078643;28;20366;-61
2023/05/20 04:41:39;;;;;;;;;;;20.90;43.20;;;;;;5092743;28;20035;-61
2023/05/20 04:44:06;;;;;;;;;;;20.90;43.20;;;;;;5082953;28;19962;-63
2023/05/20 04:46:35;;;;;;;;;;;20.90;43.20;;;;;;5076411;28;19924;-62
2023/05/20 04:49:07;;;;;;;;;;;20.90;43.20;;;;;;5079218;28;19920;-63
2023/05/20 04:51:35;;;;;;;;;;;21.00;43.30;;;;;;5078690;28;19920;-63
2023/05/20 04:54:02;;;;;;;;;;;20.90;43.20;;;;;;5078602;28;19924;-63
2023/05/20 04:56:28;;;;;;;;;;;20.90;43.20;;;;;;5075264;28;19920;-62
2023/05/20 04:58:56;;;;;;;;;;;20.90;43.20;;;;;;5081112;28;19967;-62
2023/05/20 05:01:22;;;;;;;;;;;20.90;43.20;;;;;;5098184;28;19963;-62
2023/05/20 05:03:49;;;;;;;;;;;20.90;43.20;;;;;;5078551;28;20316;-62
2023/05/20 05:06:19;;;;;;;;;;;21.00;43.30;;;;;;5076647;28;19920;-63
2023/05/20 05:08:47;;;;;;;;;;;20.90;43.20;;;;;;5078276;28;19926;-63
2023/05/20 05:11:14;;;;;;;;;;;21.00;43.20;;;;;;5077779;28;19920;-60
2023/05/20 05:13:40;;;;;;;;;;;21.00;43.20;;;;;;5074910;28;19982;-60
2023/05/20 05:16:13;;;;;;;;;;;20.90;43.10;;;;;;5092500;28;19920;-60
2023/05/20 05:18:39;;;;;;;;;;;20.90;43.10;;;;;;5078279;28;19920;-60
2023/05/20 05:21:06;;;;;;;;;;;21.00;43.30;;;;;;5078981;28;19928;-61
2023/05/20 05:23:33;;;;;;;;;;;20.90;43.10;;;;;;5078822;28;19920;-61
2023/05/20 05:26:01;;;;;;;;;;;20.90;43.20;;;;;;5078191;28;19927;-61
2023/05/20 05:28:28;;;;;;;;;;;20.90;43.20;;;;;;5094117;28;19965;-61
2023/05/20 05:30:55;;;;;;;;;;;20.90;43.20;;;;;;5094746;28;19995;-62
2023/05/20 05:33:21;;;;;;;;;;;20.90;43.20;;;;;;5077320;28;19963;-62
2023/05/20 05:35:48;;;;;;;;;;;20.90;43.20;;;;;;5086243;28;20362;-62
2023/05/20 05:38:15;;;;;;;;;;;20.90;43.20;;;;;;5109442;28;20262;-61
2023/05/20 05:40:42;;;;;;;;;;;20.90;43.20;;;;;;5074220;28;19920;-61
2023/05/20 05:43:10;;;;;;;;;;;21.00;43.30;;;;;;5074054;28;19936;-61
2023/05/20 05:45:37;;;;;;;;;;;20.90;43.20;;;;;;5075143;28;19943;-62
2023/05/20 05:48:04;;;;;;;;;;;21.00;43.30;;;;;;5075147;28;19966;-62
2023/05/20 05:50:30;;;;;;;;;;;20.90;43.20;;;;;;5057088;28;19924;-61
2023/05/20 05:52:57;;;;;;;;;;;20.90;43.20;;;;;;5040329;28;19939;-61
2023/05/20 05:55:24;;;;;;;;;;;21.00;43.30;;;;;;5039085;28;20015;-62
2023/05/20 05:57:52;;;;;;;;;;;21.00;43.30;;;;;;5073323;28;19924;-61
2023/05/20 06:00:20;;;;;;;;;;;21.00;43.30;;;;;;5088551;28;19927;-61
2023/05/20 06:02:47;;;;;;;;;;;21.00;43.30;;;;;;5082818;28;19920;-61
2023/05/20 06:05:14;;;;;;;;;;;21.00;43.30;;;;;;5095292;28;19993;-61
2023/05/20 06:07:41;;;;;;;;;;;21.00;43.30;;;;;;5109160;28;19923;-61
2023/05/20 06:10:08;;;;;;;;;;;21.00;43.30;;;;;;5075435;28;19920;-61
2023/05/20 06:12:35;;;;;;;;;;;21.00;43.30;;;;;;5076614;28;19920;-62
2023/05/20 06:15:01;;;;;;;;;;;21.00;43.30;;;;;;5077236;28;19971;-62
2023/05/20 06:17:30;;;;;;;;;;;21.00;43.30;;;;;;5071120;28;19920;-61
2023/05/20 06:19:57;;;;;;;;;;;21.00;43.30;;;;;;5073825;28;19920;-62
2023/05/20 06:22:26;;;;;;;;;;;21.00;43.30;;;;;;5085570;28;20273;-61
2023/05/20 06:24:55;;;;;;;;;;;21.00;43.30;;;;;;5092344;28;19926;-62
2023/05/20 06:27:22;;;;;;;;;;;21.00;43.30;;;;;;5097675;28;19931;-61
2023/05/20 06:29:48;;;;;;;;;;;20.90;43.20;;;;;;5070255;28;19920;-61
2023/05/20 06:32:15;;;;;;;;;;;21.00;43.30;;;;;;5081508;28;19927;-61
2023/05/20 06:34:44;;;;;;;;;;;21.00;43.30;;;;;;5090786;28;20050;-61
2023/05/20 06:37:10;;;;;;;;;;;21.00;43.30;;;;;;5082562;28;19920;-62
2023/05/20 06:39:37;;;;;;;;;;;21.00;43.20;;;;;;5078518;28;19920;-61
2023/05/20 06:42:04;;;;;;;;;;;20.90;43.20;;;;;;5081918;28;19963;-62
2023/05/20 06:44:31;;;;;;;;;;;20.90;43.20;;;;;;5092461;28;20145;-62
2023/05/20 06:46:58;;;;;;;;;;;21.00;43.30;;;;;;5094882;28;19969;-62
2023/05/20 06:49:24;;;;;;;;;;;21.00;43.30;;;;;;5091391;28;19970;-59
2023/05/20 06:51:53;;;;;;;;;;;21.00;43.30;;;;;;5082654;28;20023;-62
2023/05/20 06:54:20;;;;;;;;;;;21.00;43.30;;;;;;5092020;28;19965;-62
2023/05/20 06:56:47;;;;;;;;;;;20.90;43.20;;;;;;5089802;28;19966;-61
2023/05/20 06:59:14;;;;;;;;;;;21.00;43.30;;;;;;5073542;28;19981;-62
2023/05/20 07:01:41;;;;;;;;;;;21.00;43.30;;;;;;5076588;28;20022;-62
2023/05/20 07:04:07;;;;;;;;;;;20.90;43.20;;;;;;5068001;28;19973;-62
2023/05/20 07:06:34;;;;;;;;;;;21.00;43.30;;;;;;5079882;28;19984;-60
2023/05/20 07:09:02;;;;;;;;;;;21.00;43.30;;;;;;5074152;28;19974;-61
2023/05/20 07:11:29;;;;;;;;;;;21.00;43.30;;;;;;5074275;28;19955;-61
2023/05/20 07:13:55;;;;;;;;;;;21.00;43.30;;;;;;5091671;28;19920;-61
2023/05/20 07:16:23;;;;;;;;;;;21.00;43.30;;;;;;5092894;28;19931;-61
2023/05/20 07:19:01;;;;;;;;;;;21.00;43.30;;;;;;5110528;28;19920;-61
2023/05/20 07:21:27;;;;;;;;;;;21.00;43.30;;;;;;5094027;28;19924;-61
2023/05/20 07:23:54;;;;;;;;;;;21.00;43.30;;;;;;5092335;28;19977;-61
2023/05/20 07:26:22;;;;;;;;;;;21.00;43.30;;;;;;5076030;28;19920;-61
2023/05/20 07:28:50;;;;;;;;;;;21.00;43.30;;;;;;5075854;28;19938;-61
2023/05/20 07:31:17;;;;;;;;;;;21.00;43.30;;;;;;5075901;28;19921;-61
2023/05/20 07:33:43;;;;;;;;;;;21.00;43.30;;;;;;5093897;28;19924;-61
2023/05/20 07:36:10;;;;;;;;;;;21.00;43.30;;;;;;5073799;28;19946;-61
2023/05/20 07:38:37;;;;;;;;;;;21.00;43.90;;;;;;5092557;28;19985;-61
2023/05/20 07:41:04;;;;;;;;;;;21.00;43.30;;;;;;5093628;28;19920;-60
2023/05/20 07:43:32;;;;;;;;;;;21.00;43.30;;;;;;5076291;28;19926;-61
2023/05/20 07:45:58;;;;;;;;;;;21.00;43.30;;;;;;5074307;28;19932;-61
2023/05/20 07:48:25;;;;;;;;;;;21.00;43.30;;;;;;5075681;28;19920;-62
2023/05/20 07:50:52;;;;;;;;;;;21.00;43.30;;;;;;5093806;28;19927;-62
2023/05/20 07:53:19;;;;;;;;;;;21.00;43.30;;;;;;5057549;28;19967;-62
2023/05/20 07:55:45;;;;;;;;;;;21.00;43.30;;;;;;5092940;28;20355;-62
2023/05/20 07:58:12;;;;;;;;;;;21.00;43.30;;;;;;5092362;28;19976;-62
2023/05/20 08:00:40;;;;;;;;;;;21.00;43.30;;;;;;5075780;28;19950;-63
2023/05/20 08:03:07;;;;;;;;;;;21.00;43.30;;;;;;5075865;28;19920;-62
2023/05/20 08:05:36;;;;;;;;;;;21.00;43.30;;;;;;5092066;28;20014;-62
2023/05/20 08:08:03;;;;;;;;;;;21.00;43.30;;;;;;5076259;28;19924;-62
2023/05/20 08:10:30;;;;;;;;;;;21.00;43.30;;;;;;5092351;28;20309;-63
2023/05/20 08:12:56;;;;;;;;;;;21.00;43.30;;;;;;5076330;28;19920;-61
2023/05/20 08:15:23;;;;;;;;;;;21.00;43.30;;;;;;5092300;28;19997;-62
2023/05/20 08:17:51;;;;;;;;;;;21.00;43.40;;;;;;5102081;28;19920;-62
2023/05/20 08:20:18;;;;;;;;;;;21.00;43.30;;;;;;5093353;28;19980;-62
2023/05/20 08:22:44;;;;;;;;;;;21.00;43.30;;;;;;5095759;28;19973;-62
2023/05/20 08:25:11;;;;;;;;;;;21.00;43.30;;;;;;5096884;28;20471;-62
2023/05/20 08:27:38;;;;;;;;;;;21.00;43.30;;;;;;5113207;28;19991;-62
2023/05/20 08:30:07;;;;;;;;;;;21.00;43.30;;;;;;5095885;28;19920;-63
2023/05/20 08:32:33;;;;;;;;;;;21.00;43.40;;;;;;5095531;28;19920;-62
2023/05/20 08:35:01;;;;;;;;;;;21.00;43.30;;;;;;5096107;28;19974;-62
2023/05/20 08:37:28;;;;;;;;;;;21.00;43.40;;;;;;5111370;28;19920;-62
2023/05/20 08:39:55;;;;;;;;;;;21.00;43.30;;;;;;5095605;28;19985;-62
2023/05/20 08:42:22;;;;;;;;;;;21.00;43.30;;;;;;5112263;28;19920;-61
2023/05/20 08:44:49;;;;;;;;;;;21.00;43.30;;;;;;5095589;28;19943;-62
2023/05/20 08:47:16;;;;;;;;;;;21.00;43.40;;;;;;5095277;28;19920;-62
2023/05/20 08:49:42;;;;;;;;;;;21.00;43.30;;;;;;5096935;28;19977;-62
2023/05/20 08:55:21;;;;;;;;;;;21.00;43.30;;;;;;5123776;27;19908;-61
2023/05/20 08:57:48;;;;;;;;;;;21.00;43.40;;;;;;5090703;28;20015;-61
2023/05/20 09:00:15;;;;;;;;;;;21.00;43.30;;;;;;5088244;28;20309;-61
2023/05/20 09:02:42;;;;;;;;;;;21.00;43.30;;;;;;5090102;28;19966;-61
2023/05/20 09:05:10;;;;;;;;;;;21.00;43.30;;;;;;5089953;28;19970;-61
2023/05/20 09:07:37;;;;;;;;;;;21.00;43.40;;;;;;5089848;28;20025;-61
2023/05/20 09:10:05;;;;;;;;;;;21.00;43.40;;;;;;5091373;28;19942;-61
2023/05/20 09:12:33;;;;;;;;;;;21.00;43.40;;;;;;5090628;28;19973;-61
2023/05/20 09:15:00;;;;;;;;;;;21.00;43.40;;;;;;5089633;28;19931;-61
2023/05/20 09:17:26;;;;;;;;;;;21.00;43.40;;;;;;5087537;28;19927;-61
2023/05/20 09:19:53;;;;;;;;;;;21.00;43.30;;;;;;5090998;28;19920;-61
2023/05/20 09:22:23;;;;;;;;;;;21.00;43.30;;;;;;5090529;28;19920;-62
2023/05/20 09:24:51;;;;;;;;;;;21.00;43.30;;;;;;5085416;28;19920;-63
2023/05/20 09:27:19;;;;;;;;;;;21.00;43.30;;;;;;5099070;28;20328;-63
2023/05/20 09:29:48;;;;;;;;;;;21.00;43.40;;;;;;5089347;28;19920;-62
2023/05/20 09:32:18;;;;;;;;;;;21.00;43.40;;;;;;5100328;28;19920;-63
2023/05/20 09:34:47;;;;;;;;;;;21.00;43.30;;;;;;5091214;28;19921;-61
2023/05/20 09:37:14;;;;;;;;;;;21.00;43.40;;;;;;5090782;28;19925;-62
2023/05/20 09:39:44;;;;;;;;;;;21.00;43.30;;;;;;5095963;28;19920;-62
2023/05/20 09:42:12;;;;;;;;;;;21.00;43.30;;;;;;5094545;28;19958;-62
2023/05/20 09:44:39;;;;;;;;;;;21.00;43.30;;;;;;5096413;28;19924;-63
2023/05/20 09:47:09;;;;;;;;;;;21.00;43.40;;;;;;5104938;28;19924;-63
2023/05/20 09:49:36;;;;;;;;;;;21.00;43.40;;;;;;5091757;28;19973;-62
2023/05/20 09:52:03;;;;;;;;;;;21.00;43.40;;;;;;5113935;28;19920;-62
2023/05/20 09:54:30;;;;;;;;;;;21.00;43.40;;;;;;5098864;27;19920;-61
2023/05/20 09:56:57;;;;;;;;;;;21.00;43.40;;;;;;5099881;28;20358;-58
2023/05/20 09:59:24;;;;;;;;;;;21.00;43.40;;;;;;5092214;28;19981;-62
2023/05/20 10:01:50;;;;;;;;;;;21.00;43.40;;;;;;5083898;28;19924;-63
2023/05/20 10:04:21;;;;;;;;;;;21.00;43.40;;;;;;5089320;28;19927;-61
2023/05/20 10:06:58;;;;;;;;;;;21.00;43.40;;;;;;5093762;28;19950;-63
2023/05/20 10:09:28;;;;;;;;;;;21.00;43.40;;;;;;5090441;28;20319;-62
2023/05/20 10:11:57;;;;;;;;;;;21.00;43.40;;;;;;5076113;28;19925;-64
2023/05/20 10:14:27;;;;;;;;;;;21.00;43.40;;;;;;5091359;28;19920;-63
2023/05/20 10:16:54;;;;;;;;;;;21.00;43.40;;;;;;5065988;28;20360;-64
2023/05/20 10:19:26;;;;;;;;;;;21.00;43.40;;;;;;5080221;28;19920;-63
2023/05/20 10:21:57;;;;;;;;;;;21.00;43.40;;;;;;5083501;28;19920;-63
2023/05/20 10:24:29;;;;;;;;;;;21.00;43.40;;;;;;5078413;28;20351;-63
2023/05/20 10:26:56;;;;;;;;;;;21.00;43.40;;;;;;5079845;28;19926;-62
2023/05/20 10:29:23;;;;;;;;;;;21.00;43.40;;;;;;5076745;28;19974;-63
2023/05/20 10:31:51;;;;;;;;;;;21.00;43.40;;;;;;5077469;28;19970;-63
2023/05/20 10:34:18;;;;;;;;;;;21.00;43.40;;;;;;5069170;28;19926;-62
2023/05/20 10:36:48;;;;;;;;;;;21.00;43.40;;;;;;5099006;28;19924;-62
2023/05/20 10:39:15;;;;;;;;;;;21.00;43.40;;;;;;5097946;28;19928;-61
2023/05/20 10:41:42;;;;;;;;;;;21.00;43.40;;;;;;5101338;28;19949;-62
2023/05/20 10:44:09;;;;;;;;;;;21.00;43.40;;;;;;5082435;28;19938;-63
2023/05/20 10:46:35;;;;;;;;;;;21.00;43.40;;;;;;5094446;28;19920;-60
2023/05/20 10:49:03;;;;;;;;;;;21.00;43.40;;;;;;5094815;28;19924;-61
2023/05/20 10:51:31;;;;;;;;;;;21.00;43.40;;;;;;5095915;28;19966;-61
2023/05/20 10:54:00;;;;;;;;;;;21.00;43.40;;;;;;5094596;28;20007;-60
2023/05/20 10:56:26;;;;;;;;;;;21.00;43.40;;;;;;5079215;28;19927;-61
2023/05/20 10:58:56;;;;;;;;;;;21.00;43.40;;;;;;5074521;28;19927;-60
2023/05/20 11:01:24;;;;;;;;;;;21.00;43.40;;;;;;5075175;28;19920;-60
2023/05/20 11:03:53;;;;;;;;;;;21.00;43.40;;;;;;5074191;28;19971;-60
2023/05/20 11:06:25;;;;;;;;;;;21.00;43.40;;;;;;5074148;28;20312;-61
2023/05/20 11:08:52;;;;;;;;;;;21.00;43.40;;;;;;5075492;28;19966;-60
2023/05/20 11:11:21;;;;;;;;;;;21.10;43.40;;;;;;5074413;28;20336;-60
2023/05/20 11:13:50;;;;;;;;;;;21.10;43.50;;;;;;5074068;28;19921;-61
2023/05/20 11:16:17;;;;;;;;;;;21.10;43.50;;;;;;5064552;28;19921;-61
2023/05/20 11:18:44;;;;;;;;;;;21.10;43.50;;;;;;5087212;28;19983;-61
2023/05/20 11:21:10;;;;;;;;;;;21.10;43.50;;;;;;5053674;28;19924;-61
2023/05/20 11:23:37;;;;;;;;;;;21.10;43.50;;;;;;5062136;28;20274;-61
2023/05/20 11:26:04;;;;;;;;;;;21.00;43.40;;;;;;5075094;28;19928;-61
2023/05/20 11:28:33;;;;;;;;;;;21.10;43.50;;;;;;5074151;28;19924;-61
2023/05/20 11:31:00;;;;;;;;;;;21.00;43.40;;;;;;5073751;28;19998;-61
2023/05/20 11:33:29;;;;;;;;;;;21.10;43.40;;;;;;5073564;28;19927;-61
2023/05/20 11:35:56;;;;;;;;;;;21.10;44.00;;;;;;5072073;28;19950;-61
2023/05/20 11:38:23;;;;;;;;;;;21.10;43.50;;;;;;5075059;28;19920;-61
2023/05/20 11:40:51;;;;;;;;;;;21.00;43.40;;;;;;5073503;28;19960;-61
2023/05/20 11:43:20;;;;;;;;;;;21.10;43.50;;;;;;5074342;28;19920;-62
2023/05/20 11:45:57;;;;;;;;;;;21.00;43.40;;;;;;5073853;28;19920;-62
2023/05/20 11:48:24;;;;;;;;;;;21.10;43.50;;;;;;5073727;28;19920;-62
2023/05/20 11:50:52;;;;;;;;;;;21.10;43.50;;;;;;5074156;28;19978;-62
2023/05/20 11:53:20;;;;;;;;;;;21.00;43.50;;;;;;5107126;28;19920;-62
2023/05/20 11:55:47;;;;;;;;;;;21.00;43.40;;;;;;5075368;28;19921;-62
2023/05/20 11:58:18;;;;;;;;;;;21.10;43.50;;;;;;5074511;28;20065;-62
2023/05/20 12:00:45;;;;;;;;;;;21.10;43.50;;;;;;5073987;28;20274;-63
2023/05/20 12:03:13;;;;;;;;;;;21.10;43.50;;;;;;5073711;28;19931;-62
2023/05/20 12:05:39;;;;;;;;;;;21.10;43.50;;;;;;5073465;28;19970;-63
2023/05/20 12:08:06;;;;;;;;;;;21.00;43.40;;;;;;5072920;28;19927;-63
2023/05/20 12:10:33;;;;;;;;;;;21.00;43.40;;;;;;5073571;28;19921;-62
2023/05/20 12:13:02;;;;;;;;;;;21.10;43.50;;;;;;5070798;28;19966;-62
2023/05/20 12:15:28;;;;;;;;;;;21.10;43.50;;;;;;5073825;28;20013;-62
2023/05/20 12:17:55;;;;;;;;;;;21.10;43.50;;;;;;5073342;28;20447;-62
2023/05/20 12:20:24;;;;;;;;;;;21.10;43.50;;;;;;5074172;28;19925;-62
2023/05/20 12:22:51;;;;;;;;;;;21.10;43.50;;;;;;5073179;28;20028;-62
2023/05/20 12:25:18;;;;;;;;;;;21.10;43.50;;;;;;5074388;28;19936;-62
2023/05/20 12:27:47;;;;;;;;;;;21.10;43.50;;;;;;5073238;28;19962;-62
2023/05/20 12:30:14;;;;;;;;;;;21.10;43.50;;;;;;5106071;28;19920;-62
2023/05/20 12:32:42;;;;;;;;;;;21.10;43.50;;;;;;5074288;28;19921;-63
2023/05/20 12:35:09;;;;;;;;;;;21.10;43.50;;;;;;5071750;28;19924;-62
2023/05/20 12:37:37;;;;;;;;;;;21.10;43.50;;;;;;5071024;28;19920;-62
2023/05/20 12:40:07;;;;;;;;;;;21.00;43.50;;;;;;5084338;28;19966;-62
2023/05/20 12:42:34;;;;;;;;;;;21.10;43.50;;;;;;5069839;28;20007;-59
2023/05/20 12:45:01;;;;;;;;;;;21.10;43.50;;;;;;5079520;28;19970;-62
2023/05/20 12:47:27;;;;;;;;;;;21.00;43.50;;;;;;5072850;28;20262;-62
2023/05/20 12:49:57;;;;;;;;;;;21.10;43.50;;;;;;5072532;28;19921;-63
2023/05/20 12:52:24;;;;;;;;;;;21.10;43.50;;;;;;5074012;28;19920;-62
2023/05/20 12:54:52;;;;;;;;;;;21.10;43.50;;;;;;5071035;28;19966;-63
2023/05/20 12:57:18;;;;;;;;;;;21.10;43.50;;;;;;5073942;28;19921;-63
2023/05/20 12:59:45;;;;;;;;;;;21.10;43.50;;;;;;5070147;28;19920;-62
2023/05/20 13:02:12;;;;;;;;;;;21.10;43.50;;;;;;5079779;28;19924;-62
2023/05/20 13:04:39;;;;;;;;;;;21.10;43.50;;;;;;5086079;28;19927;-62
2023/05/20 13:07:06;;;;;;;;;;;21.10;43.50;;;;;;5070487;28;19946;-62
2023/05/20 13:09:33;;;;;;;;;;;21.10;43.50;;;;;;5085574;28;19923;-63
2023/05/20 13:12:01;;;;;;;;;;;21.10;43.50;;;;;;5074875;28;19924;-63
2023/05/20 13:14:28;;;;;;;;;;;21.10;43.60;;;;;;5070736;28;19928;-63
2023/05/20 13:16:55;;;;;;;;;;;21.10;43.50;;;;;;5069357;28;19921;-63
2023/05/20 13:19:22;;;;;;;;;;;21.10;43.50;;;;;;5071221;28;19970;-62
2023/05/20 13:21:49;;;;;;;;;;;21.10;43.50;;;;;;5072133;28;19920;-62
2023/05/20 13:24:18;;;;;;;;;;;21.10;43.50;;;;;;5093661;28;19920;-62
2023/05/20 13:26:45;;;;;;;;;;;21.10;43.50;;;;;;5073768;28;20320;-63
2023/05/20 13:29:13;;;;;;;;;;;21.10;43.50;;;;;;5079112;28;19924;-62
2023/05/20 13:31:40;;;;;;;;;;;21.10;43.50;;;;;;5080938;28;19967;-62
2023/05/20 13:34:07;;;;;;;;;;;21.10;44.10;;;;;;5087971;28;19934;-62
2023/05/20 13:36:36;;;;;;;;;;;21.10;43.50;;;;;;5070285;28;19930;-63
2023/05/20 13:39:03;;;;;;;;;;;21.10;43.60;;;;;;5069347;28;19925;-62
2023/05/20 13:41:30;;;;;;;;;;;21.10;43.50;;;;;;5075373;28;19986;-62
2023/05/20 13:43:56;;;;;;;;;;;21.10;43.50;;;;;;5075096;28;19920;-62
2023/05/20 13:46:25;;;;;;;;;;;21.10;44.10;;;;;;5096254;28;19931;-63
2023/05/20 13:48:51;;;;;;;;;;;21.10;43.50;;;;;;5085949;28;19924;-63
2023/05/20 13:51:21;;;;;;;;;;;21.10;43.60;;;;;;5074029;28;19970;-63
2023/05/20 13:53:48;;;;;;;;;;;21.10;43.60;;;;;;5076869;28;19928;-62
2023/05/20 13:56:15;;;;;;;;;;;21.10;43.50;;;;;;5085960;28;19920;-63
2023/05/20 13:58:42;;;;;;;;;;;21.10;43.60;;;;;;5094075;28;19970;-62
2023/05/20 14:01:11;;;;;;;;;;;21.10;43.50;;;;;;5078787;28;19920;-62
2023/05/20 14:03:39;;;;;;;;;;;21.10;43.50;;;;;;5096423;28;19920;-62
2023/05/20 14:06:06;;;;;;;;;;;21.10;43.60;;;;;;5084237;28;19921;-62
2023/05/20 14:08:33;;;;;;;;;;;21.10;43.60;;;;;;5082153;28;19920;-62
2023/05/20 14:11:00;;;;;;;;;;;21.10;43.60;;;;;;5073775;28;19920;-62
2023/05/20 14:13:26;;;;;;;;;;;21.10;43.60;;;;;;5082847;28;19927;-62
2023/05/20 14:15:54;;;;;;;;;;;21.10;43.60;;;;;;5075087;28;19928;-62
2023/05/20 14:18:21;;;;;;;;;;;21.10;43.60;;;;;;5075336;28;19927;-62
2023/05/20 14:20:49;;;;;;;;;;;21.10;43.60;;;;;;5071936;28;19970;-62